sensor_id;sensor_type;location;lat;lon;timestamp;P1;durP1;ratioP1;P2;durP2;ratioP2
17886;SDS011;9069;52.044;7.472;2023-07-08T00:00:51;2.70;;;1.90;;
17886;SDS011;9069;52.044;7.472;2023-07-08T00:03:19;3.92;;;1.70;;
17886;SDS011;9069;52.044;7.472;2023-07-08T00:05:47;2.10;;;1.48;;
17886;SDS011;9069;52.044;7.472;2023-07-08T00:08:16;2.05;;;1.75;;
17886;SDS011;9069;52.044;7.472;2023-07-08T00:10:45;3.45;;;1.98;;
17886;SDS011;9069;52.044;7.472;2023-07-08T00:13:12;4.80;;;1.75;;
17886;SDS011;9069;52.044;7.472;2023-07-08T00:15:39;2.85;;;1.83;;
17886;SDS011;9069;52.044;7.472;2023-07-08T00:18:14;2.55;;;1.73;;
17886;SDS011;9069;52.044;7.472;2023-07-08T00:20:43;3.75;;;2.00;;
17886;SDS011;9069;52.044;7.472;2023-07-08T00:23:12;3.75;;;1.80;;
17886;SDS011;9069;52.044;7.472;2023-07-08T00:25:39;3.25;;;2.10;;
17886;SDS011;9069;52.044;7.472;2023-07-08T00:28:08;3.97;;;1.70;;
17886;SDS011;9069;52.044;7.472;2023-07-08T00:30:37;1.83;;;1.73;;
17886;SDS011;9069;52.044;7.472;2023-07-08T00:33:05;4.30;;;1.67;;
17886;SDS011;9069;52.044;7.472;2023-07-08T00:35:34;2.92;;;1.83;;
17886;SDS011;9069;52.044;7.472;2023-07-08T00:38:02;4.50;;;1.90;;
17886;SDS011;9069;52.044;7.472;2023-07-08T00:40:49;4.72;;;1.73;;
17886;SDS011;9069;52.044;7.472;2023-07-08T00:43:19;2.47;;;1.70;;
17886;SDS011;9069;52.044;7.472;2023-07-08T00:45:51;2.95;;;1.77;;
17886;SDS011;9069;52.044;7.472;2023-07-08T00:48:29;2.90;;;1.58;;
17886;SDS011;9069;52.044;7.472;2023-07-08T00:50:59;4.25;;;2.00;;
17886;SDS011;9069;52.044;7.472;2023-07-08T00:56:30;3.67;;;1.50;;
17886;SDS011;9069;52.044;7.472;2023-07-08T01:01:26;4.38;;;2.20;;
17886;SDS011;9069;52.044;7.472;2023-07-08T01:03:56;4.05;;;1.77;;
17886;SDS011;9069;52.044;7.472;2023-07-08T01:06:28;4.60;;;1.83;;
17886;SDS011;9069;52.044;7.472;2023-07-08T01:09:00;4.85;;;2.20;;
17886;SDS011;9069;52.044;7.472;2023-07-08T01:11:32;3.60;;;1.85;;
17886;SDS011;9069;52.044;7.472;2023-07-08T01:14:01;3.85;;;2.00;;
17886;SDS011;9069;52.044;7.472;2023-07-08T01:16:30;4.13;;;2.10;;
17886;SDS011;9069;52.044;7.472;2023-07-08T01:19:00;5.80;;;2.20;;
17886;SDS011;9069;52.044;7.472;2023-07-08T01:23:58;4.10;;;1.70;;
17886;SDS011;9069;52.044;7.472;2023-07-08T01:26:27;3.63;;;1.83;;
17886;SDS011;9069;52.044;7.472;2023-07-08T01:28:55;3.67;;;2.10;;
17886;SDS011;9069;52.044;7.472;2023-07-08T01:31:23;5.55;;;2.40;;
17886;SDS011;9069;52.044;7.472;2023-07-08T01:33:53;3.03;;;1.83;;
17886;SDS011;9069;52.044;7.472;2023-07-08T01:36:22;5.82;;;2.20;;
17886;SDS011;9069;52.044;7.472;2023-07-08T01:38:51;2.17;;;1.77;;
17886;SDS011;9069;52.044;7.472;2023-07-08T01:41:18;3.13;;;1.58;;
17886;SDS011;9069;52.044;7.472;2023-07-08T01:43:45;2.60;;;1.70;;
17886;SDS011;9069;52.044;7.472;2023-07-08T01:46:22;4.13;;;1.92;;
17886;SDS011;9069;52.044;7.472;2023-07-08T01:48:52;3.53;;;1.52;;
17886;SDS011;9069;52.044;7.472;2023-07-08T01:51:22;6.32;;;1.98;;
17886;SDS011;9069;52.044;7.472;2023-07-08T01:53:51;5.00;;;1.85;;
17886;SDS011;9069;52.044;7.472;2023-07-08T01:56:18;2.15;;;1.70;;
17886;SDS011;9069;52.044;7.472;2023-07-08T01:58:45;1.70;;;1.50;;
17886;SDS011;9069;52.044;7.472;2023-07-08T02:01:12;1.60;;;1.50;;
17886;SDS011;9069;52.044;7.472;2023-07-08T02:03:39;3.45;;;2.20;;
17886;SDS011;9069;52.044;7.472;2023-07-08T02:06:10;5.00;;;1.80;;
17886;SDS011;9069;52.044;7.472;2023-07-08T02:08:36;6.03;;;1.88;;
17886;SDS011;9069;52.044;7.472;2023-07-08T02:11:03;3.30;;;1.98;;
17886;SDS011;9069;52.044;7.472;2023-07-08T02:13:30;2.17;;;1.80;;
17886;SDS011;9069;52.044;7.472;2023-07-08T02:15:57;1.85;;;1.63;;
17886;SDS011;9069;52.044;7.472;2023-07-08T02:18:25;2.85;;;1.70;;
17886;SDS011;9069;52.044;7.472;2023-07-08T02:20:52;2.78;;;1.80;;
17886;SDS011;9069;52.044;7.472;2023-07-08T02:23:19;7.93;;;1.67;;
17886;SDS011;9069;52.044;7.472;2023-07-08T02:25:52;4.28;;;1.58;;
17886;SDS011;9069;52.044;7.472;2023-07-08T02:28:20;2.40;;;1.48;;
17886;SDS011;9069;52.044;7.472;2023-07-08T02:30:47;2.20;;;1.52;;
17886;SDS011;9069;52.044;7.472;2023-07-08T02:33:14;2.72;;;1.58;;
17886;SDS011;9069;52.044;7.472;2023-07-08T02:35:44;2.55;;;1.67;;
17886;SDS011;9069;52.044;7.472;2023-07-08T02:38:11;6.10;;;1.85;;
17886;SDS011;9069;52.044;7.472;2023-07-08T02:40:39;4.40;;;1.50;;
17886;SDS011;9069;52.044;7.472;2023-07-08T02:43:06;2.70;;;1.75;;
17886;SDS011;9069;52.044;7.472;2023-07-08T02:45:33;6.55;;;1.88;;
17886;SDS011;9069;52.044;7.472;2023-07-08T02:47:59;3.25;;;2.00;;
17886;SDS011;9069;52.044;7.472;2023-07-08T02:50:26;3.30;;;1.75;;
17886;SDS011;9069;52.044;7.472;2023-07-08T02:52:53;7.25;;;1.60;;
17886;SDS011;9069;52.044;7.472;2023-07-08T02:55:20;3.95;;;1.70;;
17886;SDS011;9069;52.044;7.472;2023-07-08T02:57:46;3.90;;;1.85;;
17886;SDS011;9069;52.044;7.472;2023-07-08T03:00:13;2.13;;;1.33;;
17886;SDS011;9069;52.044;7.472;2023-07-08T03:02:41;3.22;;;1.88;;
17886;SDS011;9069;52.044;7.472;2023-07-08T03:05:07;3.67;;;1.52;;
17886;SDS011;9069;52.044;7.472;2023-07-08T03:07:34;4.45;;;1.73;;
17886;SDS011;9069;52.044;7.472;2023-07-08T03:10:02;3.25;;;2.00;;
17886;SDS011;9069;52.044;7.472;2023-07-08T03:12:29;3.13;;;1.40;;
17886;SDS011;9069;52.044;7.472;2023-07-08T03:14:57;4.53;;;1.83;;
17886;SDS011;9069;52.044;7.472;2023-07-08T03:17:24;2.33;;;1.48;;
17886;SDS011;9069;52.044;7.472;2023-07-08T03:19:51;3.33;;;1.50;;
17886;SDS011;9069;52.044;7.472;2023-07-08T03:22:18;3.65;;;1.80;;
17886;SDS011;9069;52.044;7.472;2023-07-08T03:24:44;3.97;;;1.80;;
17886;SDS011;9069;52.044;7.472;2023-07-08T03:27:16;3.65;;;1.48;;
17886;SDS011;9069;52.044;7.472;2023-07-08T03:29:44;1.98;;;1.48;;
17886;SDS011;9069;52.044;7.472;2023-07-08T03:32:11;3.95;;;1.77;;
17886;SDS011;9069;52.044;7.472;2023-07-08T03:34:40;3.95;;;1.77;;
17886;SDS011;9069;52.044;7.472;2023-07-08T03:37:08;4.28;;;2.00;;
17886;SDS011;9069;52.044;7.472;2023-07-08T03:39:35;11.48;;;1.95;;
17886;SDS011;9069;52.044;7.472;2023-07-08T03:42:02;2.42;;;1.90;;
17886;SDS011;9069;52.044;7.472;2023-07-08T03:44:30;2.33;;;1.85;;
17886;SDS011;9069;52.044;7.472;2023-07-08T03:46:58;2.92;;;2.03;;
17886;SDS011;9069;52.044;7.472;2023-07-08T03:49:25;4.15;;;1.70;;
17886;SDS011;9069;52.044;7.472;2023-07-08T03:51:54;2.55;;;1.77;;
17886;SDS011;9069;52.044;7.472;2023-07-08T03:54:21;2.63;;;1.70;;
17886;SDS011;9069;52.044;7.472;2023-07-08T03:56:51;2.58;;;1.63;;
17886;SDS011;9069;52.044;7.472;2023-07-08T03:59:20;2.97;;;1.80;;
17886;SDS011;9069;52.044;7.472;2023-07-08T04:01:46;5.40;;;1.88;;
17886;SDS011;9069;52.044;7.472;2023-07-08T04:04:14;3.33;;;1.80;;
17886;SDS011;9069;52.044;7.472;2023-07-08T04:06:43;3.53;;;1.50;;
17886;SDS011;9069;52.044;7.472;2023-07-08T04:09:11;2.38;;;1.63;;
17886;SDS011;9069;52.044;7.472;2023-07-08T04:11:38;2.72;;;1.73;;
17886;SDS011;9069;52.044;7.472;2023-07-08T04:14:05;2.83;;;1.92;;
17886;SDS011;9069;52.044;7.472;2023-07-08T04:16:42;3.15;;;1.90;;
17886;SDS011;9069;52.044;7.472;2023-07-08T04:19:12;5.43;;;1.85;;
17886;SDS011;9069;52.044;7.472;2023-07-08T04:21:41;1.63;;;1.30;;
17886;SDS011;9069;52.044;7.472;2023-07-08T04:24:13;5.07;;;2.10;;
17886;SDS011;9069;52.044;7.472;2023-07-08T04:26:41;4.55;;;1.67;;
17886;SDS011;9069;52.044;7.472;2023-07-08T04:29:11;1.95;;;1.40;;
17886;SDS011;9069;52.044;7.472;2023-07-08T04:31:39;1.95;;;1.70;;
17886;SDS011;9069;52.044;7.472;2023-07-08T04:34:07;3.85;;;2.10;;
17886;SDS011;9069;52.044;7.472;2023-07-08T04:36:35;3.40;;;2.10;;
17886;SDS011;9069;52.044;7.472;2023-07-08T04:39:03;3.72;;;1.90;;
17886;SDS011;9069;52.044;7.472;2023-07-08T04:41:31;2.30;;;1.70;;
17886;SDS011;9069;52.044;7.472;2023-07-08T04:43:58;2.50;;;1.80;;
17886;SDS011;9069;52.044;7.472;2023-07-08T04:46:35;2.65;;;1.80;;
17886;SDS011;9069;52.044;7.472;2023-07-08T04:49:03;3.15;;;1.92;;
17886;SDS011;9069;52.044;7.472;2023-07-08T04:51:31;3.05;;;1.70;;
17886;SDS011;9069;52.044;7.472;2023-07-08T04:53:58;3.90;;;1.95;;
17886;SDS011;9069;52.044;7.472;2023-07-08T04:56:26;3.28;;;2.25;;
17886;SDS011;9069;52.044;7.472;2023-07-08T04:59:03;2.38;;;1.85;;
17886;SDS011;9069;52.044;7.472;2023-07-08T05:01:30;3.13;;;1.60;;
17886;SDS011;9069;52.044;7.472;2023-07-08T05:03:58;4.45;;;2.33;;
17886;SDS011;9069;52.044;7.472;2023-07-08T05:06:26;5.32;;;1.92;;
17886;SDS011;9069;52.044;7.472;2023-07-08T05:08:53;4.03;;;2.00;;
17886;SDS011;9069;52.044;7.472;2023-07-08T05:11:20;5.78;;;1.98;;
17886;SDS011;9069;52.044;7.472;2023-07-08T05:13:46;2.53;;;1.80;;
17886;SDS011;9069;52.044;7.472;2023-07-08T05:16:13;2.67;;;1.67;;
17886;SDS011;9069;52.044;7.472;2023-07-08T05:18:40;2.72;;;1.70;;
17886;SDS011;9069;52.044;7.472;2023-07-08T05:21:08;4.25;;;2.08;;
17886;SDS011;9069;52.044;7.472;2023-07-08T05:23:35;3.92;;;2.00;;
17886;SDS011;9069;52.044;7.472;2023-07-08T05:26:03;2.55;;;1.80;;
17886;SDS011;9069;52.044;7.472;2023-07-08T05:28:31;2.35;;;1.92;;
17886;SDS011;9069;52.044;7.472;2023-07-08T05:30:58;2.92;;;1.80;;
17886;SDS011;9069;52.044;7.472;2023-07-08T05:33:26;2.60;;;2.10;;
17886;SDS011;9069;52.044;7.472;2023-07-08T05:35:55;2.75;;;1.98;;
17886;SDS011;9069;52.044;7.472;2023-07-08T05:38:22;4.03;;;2.10;;
17886;SDS011;9069;52.044;7.472;2023-07-08T05:40:50;5.78;;;2.03;;
17886;SDS011;9069;52.044;7.472;2023-07-08T05:43:19;6.00;;;1.70;;
17886;SDS011;9069;52.044;7.472;2023-07-08T05:45:47;4.07;;;2.28;;
17886;SDS011;9069;52.044;7.472;2023-07-08T05:48:33;5.70;;;2.08;;
17886;SDS011;9069;52.044;7.472;2023-07-08T05:51:00;5.70;;;2.17;;
17886;SDS011;9069;52.044;7.472;2023-07-08T05:53:27;3.15;;;1.80;;
17886;SDS011;9069;52.044;7.472;2023-07-08T05:55:54;5.63;;;2.08;;
17886;SDS011;9069;52.044;7.472;2023-07-08T05:58:20;5.13;;;2.00;;
17886;SDS011;9069;52.044;7.472;2023-07-08T06:00:56;4.68;;;1.80;;
17886;SDS011;9069;52.044;7.472;2023-07-08T06:03:24;5.78;;;2.15;;
17886;SDS011;9069;52.044;7.472;2023-07-08T06:05:52;3.65;;;2.10;;
17886;SDS011;9069;52.044;7.472;2023-07-08T06:08:19;5.00;;;2.30;;
17886;SDS011;9069;52.044;7.472;2023-07-08T06:10:45;2.95;;;1.98;;
17886;SDS011;9069;52.044;7.472;2023-07-08T06:13:13;4.75;;;2.30;;
17886;SDS011;9069;52.044;7.472;2023-07-08T06:15:40;7.90;;;2.15;;
17886;SDS011;9069;52.044;7.472;2023-07-08T06:18:07;3.20;;;1.95;;
17886;SDS011;9069;52.044;7.472;2023-07-08T06:20:35;5.43;;;1.73;;
17886;SDS011;9069;52.044;7.472;2023-07-08T06:23:01;3.47;;;2.15;;
17886;SDS011;9069;52.044;7.472;2023-07-08T06:25:29;2.95;;;1.80;;
17886;SDS011;9069;52.044;7.472;2023-07-08T06:27:55;6.07;;;1.90;;
17886;SDS011;9069;52.044;7.472;2023-07-08T06:30:22;2.05;;;1.73;;
17886;SDS011;9069;52.044;7.472;2023-07-08T06:32:49;4.07;;;2.00;;
17886;SDS011;9069;52.044;7.472;2023-07-08T06:35:17;3.63;;;2.08;;
17886;SDS011;9069;52.044;7.472;2023-07-08T06:37:44;3.80;;;2.08;;
17886;SDS011;9069;52.044;7.472;2023-07-08T06:40:11;5.72;;;2.10;;
17886;SDS011;9069;52.044;7.472;2023-07-08T06:42:38;2.83;;;1.83;;
17886;SDS011;9069;52.044;7.472;2023-07-08T06:45:15;3.08;;;1.60;;
17886;SDS011;9069;52.044;7.472;2023-07-08T06:47:42;4.80;;;2.08;;
17886;SDS011;9069;52.044;7.472;2023-07-08T06:50:09;3.10;;;1.77;;
17886;SDS011;9069;52.044;7.472;2023-07-08T06:52:36;2.58;;;2.15;;
17886;SDS011;9069;52.044;7.472;2023-07-08T06:55:05;6.00;;;2.50;;
17886;SDS011;9069;52.044;7.472;2023-07-08T06:57:34;1.90;;;1.70;;
17886;SDS011;9069;52.044;7.472;2023-07-08T07:00:01;5.78;;;2.00;;
17886;SDS011;9069;52.044;7.472;2023-07-08T07:02:29;5.32;;;2.05;;
17886;SDS011;9069;52.044;7.472;2023-07-08T07:04:56;2.75;;;2.05;;
17886;SDS011;9069;52.044;7.472;2023-07-08T07:07:23;4.32;;;2.05;;
17886;SDS011;9069;52.044;7.472;2023-07-08T07:09:49;4.07;;;2.25;;
17886;SDS011;9069;52.044;7.472;2023-07-08T07:12:16;3.75;;;2.08;;
17886;SDS011;9069;52.044;7.472;2023-07-08T07:14:43;3.97;;;2.00;;
17886;SDS011;9069;52.044;7.472;2023-07-08T07:17:13;3.40;;;1.98;;
17886;SDS011;9069;52.044;7.472;2023-07-08T07:19:40;2.80;;;2.03;;
17886;SDS011;9069;52.044;7.472;2023-07-08T07:22:06;3.17;;;1.85;;
17886;SDS011;9069;52.044;7.472;2023-07-08T07:24:33;5.00;;;1.92;;
17886;SDS011;9069;52.044;7.472;2023-07-08T07:27:00;5.40;;;2.00;;
17886;SDS011;9069;52.044;7.472;2023-07-08T07:29:26;4.00;;;2.50;;
17886;SDS011;9069;52.044;7.472;2023-07-08T07:31:53;3.08;;;1.95;;
17886;SDS011;9069;52.044;7.472;2023-07-08T07:34:21;4.07;;;2.40;;
17886;SDS011;9069;52.044;7.472;2023-07-08T07:36:48;5.28;;;2.08;;
17886;SDS011;9069;52.044;7.472;2023-07-08T07:39:14;4.95;;;1.90;;
17886;SDS011;9069;52.044;7.472;2023-07-08T07:41:41;6.20;;;2.33;;
17886;SDS011;9069;52.044;7.472;2023-07-08T07:44:08;6.07;;;1.98;;
17886;SDS011;9069;52.044;7.472;2023-07-08T07:46:35;2.85;;;2.10;;
17886;SDS011;9069;52.044;7.472;2023-07-08T07:49:01;4.60;;;2.60;;
17886;SDS011;9069;52.044;7.472;2023-07-08T07:51:28;3.88;;;2.03;;
17886;SDS011;9069;52.044;7.472;2023-07-08T07:53:55;2.10;;;1.92;;
17886;SDS011;9069;52.044;7.472;2023-07-08T07:56:21;5.72;;;2.17;;
17886;SDS011;9069;52.044;7.472;2023-07-08T07:58:51;3.50;;;2.00;;
17886;SDS011;9069;52.044;7.472;2023-07-08T08:01:18;3.35;;;2.13;;
17886;SDS011;9069;52.044;7.472;2023-07-08T08:03:46;4.40;;;2.15;;
17886;SDS011;9069;52.044;7.472;2023-07-08T08:06:16;8.52;;;2.38;;
17886;SDS011;9069;52.044;7.472;2023-07-08T08:08:44;2.30;;;1.75;;
17886;SDS011;9069;52.044;7.472;2023-07-08T08:11:11;3.08;;;2.50;;
17886;SDS011;9069;52.044;7.472;2023-07-08T08:13:38;2.40;;;2.00;;
17886;SDS011;9069;52.044;7.472;2023-07-08T08:16:05;5.70;;;2.78;;
17886;SDS011;9069;52.044;7.472;2023-07-08T08:18:32;3.67;;;2.53;;
17886;SDS011;9069;52.044;7.472;2023-07-08T08:20:59;3.55;;;2.65;;
17886;SDS011;9069;52.044;7.472;2023-07-08T08:23:26;3.85;;;2.55;;
17886;SDS011;9069;52.044;7.472;2023-07-08T08:25:52;2.88;;;2.25;;
17886;SDS011;9069;52.044;7.472;2023-07-08T08:28:19;3.47;;;2.47;;
17886;SDS011;9069;52.044;7.472;2023-07-08T08:30:46;2.95;;;2.30;;
17886;SDS011;9069;52.044;7.472;2023-07-08T08:33:14;5.43;;;2.50;;
17886;SDS011;9069;52.044;7.472;2023-07-08T08:35:44;3.63;;;2.60;;
17886;SDS011;9069;52.044;7.472;2023-07-08T08:38:11;4.50;;;2.42;;
17886;SDS011;9069;52.044;7.472;2023-07-08T08:40:41;4.55;;;2.80;;
17886;SDS011;9069;52.044;7.472;2023-07-08T08:43:13;7.57;;;2.55;;
17886;SDS011;9069;52.044;7.472;2023-07-08T08:51:54;2.97;;;2.42;;
17886;SDS011;9069;52.044;7.472;2023-07-08T08:54:24;3.17;;;2.20;;
17886;SDS011;9069;52.044;7.472;2023-07-08T08:57:32;3.88;;;2.58;;
17886;SDS011;9069;52.044;7.472;2023-07-08T08:59:45;4.75;;;3.25;;
17886;SDS011;9069;52.044;7.472;2023-07-08T09:02:32;2.50;;;2.15;;
17886;SDS011;9069;52.044;7.472;2023-07-08T09:05:04;3.38;;;2.50;;
17886;SDS011;9069;52.044;7.472;2023-07-08T09:07:36;3.33;;;2.50;;
17886;SDS011;9069;52.044;7.472;2023-07-08T09:13:16;3.75;;;2.80;;
17886;SDS011;9069;52.044;7.472;2023-07-08T09:15:54;3.10;;;2.80;;
17886;SDS011;9069;52.044;7.472;2023-07-08T09:21:55;5.97;;;2.80;;
17886;SDS011;9069;52.044;7.472;2023-07-08T09:24:32;6.57;;;3.58;;
17886;SDS011;9069;52.044;7.472;2023-07-08T09:27:04;4.88;;;2.90;;
17886;SDS011;9069;52.044;7.472;2023-07-08T09:29:32;5.70;;;3.00;;
17886;SDS011;9069;52.044;7.472;2023-07-08T09:31:59;3.22;;;2.88;;
17886;SDS011;9069;52.044;7.472;2023-07-08T09:34:41;5.20;;;3.38;;
17886;SDS011;9069;52.044;7.472;2023-07-08T09:37:23;5.20;;;3.00;;
17886;SDS011;9069;52.044;7.472;2023-07-08T09:39:53;8.80;;;4.25;;
17886;SDS011;9069;52.044;7.472;2023-07-08T09:42:21;5.75;;;3.38;;
17886;SDS011;9069;52.044;7.472;2023-07-08T09:44:54;4.45;;;3.33;;
17886;SDS011;9069;52.044;7.472;2023-07-08T09:47:24;3.60;;;3.17;;
17886;SDS011;9069;52.044;7.472;2023-07-08T09:49:57;6.82;;;3.65;;
17886;SDS011;9069;52.044;7.472;2023-07-08T09:52:24;8.20;;;3.35;;
17886;SDS011;9069;52.044;7.472;2023-07-08T09:54:51;5.22;;;2.97;;
17886;SDS011;9069;52.044;7.472;2023-07-08T09:57:21;5.90;;;3.20;;
17886;SDS011;9069;52.044;7.472;2023-07-08T10:00:38;5.38;;;3.10;;
17886;SDS011;9069;52.044;7.472;2023-07-08T10:02:46;3.75;;;2.70;;
17886;SDS011;9069;52.044;7.472;2023-07-08T10:07:52;3.95;;;3.03;;
17886;SDS011;9069;52.044;7.472;2023-07-08T10:10:24;3.78;;;3.10;;
17886;SDS011;9069;52.044;7.472;2023-07-08T10:13:04;7.82;;;3.35;;
17886;SDS011;9069;52.044;7.472;2023-07-08T10:15:43;7.78;;;3.38;;
17886;SDS011;9069;52.044;7.472;2023-07-08T10:18:16;7.80;;;3.28;;
17886;SDS011;9069;52.044;7.472;2023-07-08T10:24:10;4.60;;;2.92;;
17886;SDS011;9069;52.044;7.472;2023-07-08T10:29:58;7.90;;;3.42;;
17886;SDS011;9069;52.044;7.472;2023-07-08T10:36:42;12.00;;;3.85;;
17886;SDS011;9069;52.044;7.472;2023-07-08T10:38:46;4.15;;;3.10;;
17886;SDS011;9069;52.044;7.472;2023-07-08T10:44:04;4.78;;;3.70;;
17886;SDS011;9069;52.044;7.472;2023-07-08T10:47:10;4.47;;;3.67;;
17886;SDS011;9069;52.044;7.472;2023-07-08T10:53:35;4.00;;;3.25;;
17886;SDS011;9069;52.044;7.472;2023-07-08T10:56:28;5.18;;;3.55;;
17886;SDS011;9069;52.044;7.472;2023-07-08T11:08:01;4.20;;;3.05;;
17886;SDS011;9069;52.044;7.472;2023-07-08T11:13:58;6.43;;;3.55;;
17886;SDS011;9069;52.044;7.472;2023-07-08T11:16:50;4.72;;;3.33;;
17886;SDS011;9069;52.044;7.472;2023-07-08T11:19:26;4.30;;;3.20;;
17886;SDS011;9069;52.044;7.472;2023-07-08T11:21:59;3.50;;;3.20;;
17886;SDS011;9069;52.044;7.472;2023-07-08T11:24:37;6.53;;;3.55;;
17886;SDS011;9069;52.044;7.472;2023-07-08T11:27:19;4.45;;;3.75;;
17886;SDS011;9069;52.044;7.472;2023-07-08T11:32:38;7.40;;;3.97;;
17886;SDS011;9069;52.044;7.472;2023-07-08T11:35:13;9.73;;;3.55;;
17886;SDS011;9069;52.044;7.472;2023-07-08T11:37:47;5.25;;;3.70;;
17886;SDS011;9069;52.044;7.472;2023-07-08T11:40:19;8.52;;;4.10;;
17886;SDS011;9069;52.044;7.472;2023-07-08T11:42:49;7.10;;;5.25;;
17886;SDS011;9069;52.044;7.472;2023-07-08T11:45:27;8.90;;;3.72;;
17886;SDS011;9069;52.044;7.472;2023-07-08T11:50:45;5.75;;;4.28;;
17886;SDS011;9069;52.044;7.472;2023-07-08T11:58:25;7.88;;;3.90;;
17886;SDS011;9069;52.044;7.472;2023-07-08T12:01:04;9.52;;;4.40;;
17886;SDS011;9069;52.044;7.472;2023-07-08T12:04:01;6.13;;;4.13;;
17886;SDS011;9069;52.044;7.472;2023-07-08T12:07:03;6.03;;;4.40;;
17886;SDS011;9069;52.044;7.472;2023-07-08T12:09:38;6.05;;;3.90;;
17886;SDS011;9069;52.044;7.472;2023-07-08T12:12:37;6.28;;;4.15;;
17886;SDS011;9069;52.044;7.472;2023-07-08T12:18:02;5.55;;;4.13;;
17886;SDS011;9069;52.044;7.472;2023-07-08T12:20:38;7.80;;;4.45;;
17886;SDS011;9069;52.044;7.472;2023-07-08T12:23:14;5.43;;;4.38;;
17886;SDS011;9069;52.044;7.472;2023-07-08T12:25:44;5.90;;;4.28;;
17886;SDS011;9069;52.044;7.472;2023-07-08T12:28:11;5.72;;;4.00;;
17886;SDS011;9069;52.044;7.472;2023-07-08T12:30:39;6.25;;;4.47;;
17886;SDS011;9069;52.044;7.472;2023-07-08T12:33:11;8.77;;;4.35;;
17886;SDS011;9069;52.044;7.472;2023-07-08T12:35:42;7.68;;;4.03;;
17886;SDS011;9069;52.044;7.472;2023-07-08T12:38:14;6.40;;;4.30;;
17886;SDS011;9069;52.044;7.472;2023-07-08T12:40:47;5.53;;;4.65;;
17886;SDS011;9069;52.044;7.472;2023-07-08T12:43:14;11.15;;;4.53;;
17886;SDS011;9069;52.044;7.472;2023-07-08T12:45:42;5.65;;;4.32;;
17886;SDS011;9069;52.044;7.472;2023-07-08T12:48:10;8.75;;;4.00;;
17886;SDS011;9069;52.044;7.472;2023-07-08T12:50:37;5.55;;;4.22;;
17886;SDS011;9069;52.044;7.472;2023-07-08T12:53:04;7.03;;;4.63;;
17886;SDS011;9069;52.044;7.472;2023-07-08T12:55:39;5.70;;;4.72;;
17886;SDS011;9069;52.044;7.472;2023-07-08T12:58:18;6.40;;;4.40;;
17886;SDS011;9069;52.044;7.472;2023-07-08T13:00:52;5.28;;;4.30;;
17886;SDS011;9069;52.044;7.472;2023-07-08T13:03:19;10.88;;;4.40;;
17886;SDS011;9069;52.044;7.472;2023-07-08T13:05:50;6.32;;;4.50;;
17886;SDS011;9069;52.044;7.472;2023-07-08T13:08:20;6.00;;;4.28;;
17886;SDS011;9069;52.044;7.472;2023-07-08T13:10:55;7.00;;;4.68;;
17886;SDS011;9069;52.044;7.472;2023-07-08T13:13:26;9.18;;;4.47;;
17886;SDS011;9069;52.044;7.472;2023-07-08T13:15:56;6.28;;;4.38;;
17886;SDS011;9069;52.044;7.472;2023-07-08T13:18:28;7.22;;;4.95;;
17886;SDS011;9069;52.044;7.472;2023-07-08T13:20:56;6.90;;;4.32;;
17886;SDS011;9069;52.044;7.472;2023-07-08T13:23:25;9.90;;;4.68;;
17886;SDS011;9069;52.044;7.472;2023-07-08T13:25:53;6.20;;;4.20;;
17886;SDS011;9069;52.044;7.472;2023-07-08T13:28:25;9.02;;;4.32;;
17886;SDS011;9069;52.044;7.472;2023-07-08T13:30:56;7.53;;;5.03;;
17886;SDS011;9069;52.044;7.472;2023-07-08T13:33:33;7.53;;;4.88;;
17886;SDS011;9069;52.044;7.472;2023-07-08T13:36:01;11.30;;;4.93;;
17886;SDS011;9069;52.044;7.472;2023-07-08T13:38:33;8.00;;;4.28;;
17886;SDS011;9069;52.044;7.472;2023-07-08T13:41:02;5.22;;;4.07;;
17886;SDS011;9069;52.044;7.472;2023-07-08T13:43:32;7.30;;;4.68;;
17886;SDS011;9069;52.044;7.472;2023-07-08T13:46:04;6.60;;;4.32;;
17886;SDS011;9069;52.044;7.472;2023-07-08T13:48:36;9.35;;;5.10;;
17886;SDS011;9069;52.044;7.472;2023-07-08T13:51:09;10.57;;;4.18;;
17886;SDS011;9069;52.044;7.472;2023-07-08T13:53:51;8.05;;;4.70;;
17886;SDS011;9069;52.044;7.472;2023-07-08T13:56:30;8.50;;;4.43;;
17886;SDS011;9069;52.044;7.472;2023-07-08T14:01:31;6.82;;;4.90;;
17886;SDS011;9069;52.044;7.472;2023-07-08T14:03:59;6.47;;;4.68;;
17886;SDS011;9069;52.044;7.472;2023-07-08T14:06:31;6.40;;;4.18;;
17886;SDS011;9069;52.044;7.472;2023-07-08T14:09:06;8.65;;;4.25;;
17886;SDS011;9069;52.044;7.472;2023-07-08T14:11:44;6.18;;;4.88;;
17886;SDS011;9069;52.044;7.472;2023-07-08T14:14:12;6.53;;;4.25;;
17886;SDS011;9069;52.044;7.472;2023-07-08T14:16:39;7.95;;;5.18;;
17886;SDS011;9069;52.044;7.472;2023-07-08T14:19:13;5.75;;;4.18;;
17886;SDS011;9069;52.044;7.472;2023-07-08T14:21:43;7.97;;;4.70;;
17886;SDS011;9069;52.044;7.472;2023-07-08T14:24:13;5.97;;;4.40;;
17886;SDS011;9069;52.044;7.472;2023-07-08T14:26:41;5.55;;;4.03;;
17886;SDS011;9069;52.044;7.472;2023-07-08T14:29:09;6.35;;;4.47;;
17886;SDS011;9069;52.044;7.472;2023-07-08T14:31:37;5.65;;;4.50;;
17886;SDS011;9069;52.044;7.472;2023-07-08T14:34:09;7.40;;;4.60;;
17886;SDS011;9069;52.044;7.472;2023-07-08T14:36:38;5.85;;;4.25;;
17886;SDS011;9069;52.044;7.472;2023-07-08T14:39:09;6.25;;;4.28;;
17886;SDS011;9069;52.044;7.472;2023-07-08T14:41:38;5.80;;;4.20;;
17886;SDS011;9069;52.044;7.472;2023-07-08T14:44:18;6.65;;;5.03;;
17886;SDS011;9069;52.044;7.472;2023-07-08T14:46:51;8.55;;;4.07;;
17886;SDS011;9069;52.044;7.472;2023-07-08T14:49:19;7.50;;;4.82;;
17886;SDS011;9069;52.044;7.472;2023-07-08T14:51:48;6.75;;;4.80;;
17886;SDS011;9069;52.044;7.472;2023-07-08T14:54:17;5.80;;;3.85;;
17886;SDS011;9069;52.044;7.472;2023-07-08T14:56:45;7.28;;;4.82;;
17886;SDS011;9069;52.044;7.472;2023-07-08T14:59:17;6.63;;;5.18;;
17886;SDS011;9069;52.044;7.472;2023-07-08T15:01:46;6.45;;;5.03;;
17886;SDS011;9069;52.044;7.472;2023-07-08T15:04:14;8.32;;;4.90;;
17886;SDS011;9069;52.044;7.472;2023-07-08T15:06:43;6.68;;;4.68;;
17886;SDS011;9069;52.044;7.472;2023-07-08T15:09:11;9.48;;;7.40;;
17886;SDS011;9069;52.044;7.472;2023-07-08T15:11:38;5.90;;;4.72;;
17886;SDS011;9069;52.044;7.472;2023-07-08T15:14:40;8.60;;;5.53;;
17886;SDS011;9069;52.044;7.472;2023-07-08T15:16:59;5.85;;;4.28;;
17886;SDS011;9069;52.044;7.472;2023-07-08T15:19:26;6.75;;;4.85;;
17886;SDS011;9069;52.044;7.472;2023-07-08T15:21:54;5.32;;;4.30;;
17886;SDS011;9069;52.044;7.472;2023-07-08T15:24:21;9.23;;;4.13;;
17886;SDS011;9069;52.044;7.472;2023-07-08T15:26:50;8.18;;;5.07;;
17886;SDS011;9069;52.044;7.472;2023-07-08T15:29:21;6.57;;;4.72;;
17886;SDS011;9069;52.044;7.472;2023-07-08T15:31:49;12.80;;;4.50;;
17886;SDS011;9069;52.044;7.472;2023-07-08T15:34:18;7.22;;;4.43;;
17886;SDS011;9069;52.044;7.472;2023-07-08T15:36:46;7.70;;;4.88;;
17886;SDS011;9069;52.044;7.472;2023-07-08T15:39:13;7.60;;;4.70;;
17886;SDS011;9069;52.044;7.472;2023-07-08T15:41:41;5.60;;;4.28;;
17886;SDS011;9069;52.044;7.472;2023-07-08T15:44:09;6.60;;;4.53;;
17886;SDS011;9069;52.044;7.472;2023-07-08T15:46:40;7.35;;;4.05;;
17886;SDS011;9069;52.044;7.472;2023-07-08T15:49:14;5.80;;;4.50;;
17886;SDS011;9069;52.044;7.472;2023-07-08T15:51:41;6.38;;;4.50;;
17886;SDS011;9069;52.044;7.472;2023-07-08T15:54:12;6.20;;;4.05;;
17886;SDS011;9069;52.044;7.472;2023-07-08T15:56:39;8.07;;;4.97;;
17886;SDS011;9069;52.044;7.472;2023-07-08T15:59:11;8.63;;;5.72;;
17886;SDS011;9069;52.044;7.472;2023-07-08T16:01:42;6.25;;;5.03;;
17886;SDS011;9069;52.044;7.472;2023-07-08T16:04:51;13.55;;;5.32;;
17886;SDS011;9069;52.044;7.472;2023-07-08T16:06:59;6.45;;;4.15;;
17886;SDS011;9069;52.044;7.472;2023-07-08T16:09:26;5.70;;;4.40;;
17886;SDS011;9069;52.044;7.472;2023-07-08T16:11:53;16.92;;;4.80;;
17886;SDS011;9069;52.044;7.472;2023-07-08T16:14:20;11.00;;;4.70;;
17886;SDS011;9069;52.044;7.472;2023-07-08T16:16:50;8.05;;;4.38;;
17886;SDS011;9069;52.044;7.472;2023-07-08T16:19:17;7.00;;;3.67;;
17886;SDS011;9069;52.044;7.472;2023-07-08T16:21:44;4.95;;;3.97;;
17886;SDS011;9069;52.044;7.472;2023-07-08T16:24:12;6.05;;;4.18;;
17886;SDS011;9069;52.044;7.472;2023-07-08T16:26:38;7.60;;;4.53;;